Time,TemperatureF,DewpointF,PressureIn,WindDirection,WindDirectionDegrees,WindSpeedMPH,WindSpeedGustMPH,Humidity,HourlyPrecipIn,Conditions,Clouds,dailyrainin,SoftwareType,DateUTC
2013-03-12 02:23:00,51.6,42.2,29.02,SSE,158,13.6,13.6,70,0.00,,,0.00,WUHU216HW,2013-03-12 06:23:00,
2013-03-12 02:28:00,53.2,45.5,29.00,South,180,14.9,14.9,75,0.00,,,0.00,WUHU216HW,2013-03-12 06:28:00,
2013-03-12 02:33:00,53.2,45.5,29.00,South,180,13.6,14.9,75,0.00,,,0.00,WUHU216HW,2013-03-12 06:33:00,
2013-03-12 02:38:00,53.4,45.6,29.00,SSE,158,17.2,17.2,75,0.00,,,0.00,WUHU216HW,2013-03-12 06:38:00,
2013-03-12 02:43:00,53.4,45.6,29.01,SSE,158,14.3,18.3,75,0.00,,,0.00,WUHU216HW,2013-03-12 06:43:00,
2013-03-12 02:48:00,53.4,45.6,29.01,South,180,14.3,18.3,75,0.00,,,0.00,WUHU216HW,2013-03-12 06:48:00,
2013-03-12 02:53:00,53.4,45.6,29.01,SSW,203,18.3,18.3,75,0.00,,,0.00,WUHU216HW,2013-03-12 06:53:00,
2013-03-12 02:59:00,53.4,45.6,29.01,South,180,14.5,22.8,75,0.00,,,0.00,WUHU216HW,2013-03-12 06:59:00,
2013-03-12 03:04:00,53.4,45.6,29.01,South,180,16.1,19.9,75,0.00,,,0.00,WUHU216HW,2013-03-12 07:04:00,
2013-03-12 03:09:00,53.4,45.6,29.01,SSW,203,9.3,19.2,75,0.00,,,0.00,WUHU216HW,2013-03-12 07:09:00,
2013-03-12 03:14:00,53.4,45.6,29.01,SW,225,16.3,16.3,75,0.00,,,0.00,WUHU216HW,2013-03-12 07:14:00,
2013-03-12 03:19:00,53.4,45.6,29.01,SSW,203,18.5,21.6,75,0.00,,,0.00,WUHU216HW,2013-03-12 07:19:00,
2013-03-12 03:24:00,53.4,45.6,29.01,South,180,12.9,21.6,75,0.00,,,0.00,WUHU216HW,2013-03-12 07:24:00,
2013-03-12 03:29:00,53.4,45.6,29.01,South,180,14.0,16.5,75,0.00,,,0.00,WUHU216HW,2013-03-12 07:29:00,
2013-03-12 03:35:00,53.4,45.6,29.01,SW,225,18.1,18.1,75,0.00,,,0.00,WUHU216HW,2013-03-12 07:35:00,
2013-03-12 03:40:00,53.4,46.0,29.01,South,180,15.6,18.1,76,0.00,,,0.00,WUHU216HW,2013-03-12 07:40:00,
2013-03-12 03:45:00,53.4,46.0,29.02,South,180,9.3,18.1,76,0.00,,,0.00,WUHU216HW,2013-03-12 07:45:00,
2013-03-12 03:50:00,53.2,45.8,29.01,South,180,12.0,15.6,76,0.00,,,0.00,WUHU216HW,2013-03-12 07:50:00,
2013-03-12 03:55:00,53.2,45.8,29.01,SSW,203,16.3,17.4,76,0.00,,,0.00,WUHU216HW,2013-03-12 07:55:00,
2013-03-12 04:00:00,53.2,45.8,29.01,SSW,203,10.7,17.4,76,0.00,,,0.00,WUHU216HW,2013-03-12 08:00:00,
2013-03-12 04:05:00,52.8,46.2,29.01,SSE,158,9.1,16.3,77,0.00,,,0.00,WUHU216HW,2013-03-12 08:05:00,
2013-03-12 04:10:00,52.7,46.0,29.01,SSW,203,12.5,12.5,78,0.00,,,0.00,WUHU216HW,2013-03-12 08:10:00,
2013-03-12 04:16:00,52.3,46.0,29.02,South,180,12.3,13.4,79,0.00,,,0.00,WUHU216HW,2013-03-12 08:16:00,
2013-03-12 04:21:00,52.1,46.0,29.01,South,180,9.3,13.4,79,0.00,,,0.00,WUHU216HW,2013-03-12 08:21:00,
2013-03-12 04:26:00,51.9,46.0,29.01,SSW,203,11.4,12.3,80,0.00,,,0.00,WUHU216HW,2013-03-12 08:26:00,
2013-03-12 04:31:00,51.9,46.3,29.02,SSW,203,9.8,11.6,81,0.00,,,0.00,WUHU216HW,2013-03-12 08:31:00,
2013-03-12 04:36:00,51.9,46.3,29.02,SSW,203,11.4,11.4,81,0.00,,,0.00,WUHU216HW,2013-03-12 08:36:00,
2013-03-12 04:41:00,51.8,46.1,29.02,SW,225,11.6,11.6,81,0.00,,,0.00,WUHU216HW,2013-03-12 08:41:00,
2013-03-12 04:46:00,51.6,45.9,29.02,South,180,6.7,16.3,81,0.00,,,0.00,WUHU216HW,2013-03-12 08:46:00,
2013-03-12 04:51:00,51.6,45.9,29.02,SSW,203,7.6,16.3,81,0.00,,,0.00,WUHU216HW,2013-03-12 08:51:00,
2013-03-12 04:57:00,51.6,45.9,29.02,South,180,6.2,12.7,81,0.00,,,0.00,WUHU216HW,2013-03-12 08:57:00,
2013-03-12 05:02:00,51.6,45.9,29.02,SSW,203,8.2,12.7,81,0.00,,,0.00,WUHU216HW,2013-03-12 09:02:00,
2013-03-12 05:07:00,51.6,45.9,29.02,South,180,6.9,10.0,81,0.00,,,0.00,WUHU216HW,2013-03-12 09:07:00,
2013-03-12 05:12:00,51.6,45.9,29.02,South,180,6.0,7.8,81,0.00,,,0.00,WUHU216HW,2013-03-12 09:12:00,
2013-03-12 05:17:00,51.6,45.9,29.02,SSW,203,7.8,7.8,81,0.00,,,0.00,WUHU216HW,2013-03-12 09:17:00,
2013-03-12 05:22:00,51.6,45.9,29.01,SSW,203,8.0,8.9,81,0.00,,,0.00,WUHU216HW,2013-03-12 09:22:00,
2013-03-12 05:27:00,51.6,45.9,29.01,South,180,8.7,9.6,81,0.00,,,0.00,WUHU216HW,2013-03-12 09:27:00,
2013-03-12 05:32:00,51.6,45.9,29.02,SW,225,7.1,9.8,81,0.00,,,0.00,WUHU216HW,2013-03-12 09:32:00,
2013-03-12 05:38:00,51.4,45.8,29.02,NNW,338,5.1,15.2,81,0.00,,,0.00,WUHU216HW,2013-03-12 09:38:00,
2013-03-12 05:43:00,50.5,44.6,29.03,NNW,338,8.2,15.2,80,0.00,,,0.00,WUHU216HW,2013-03-12 09:43:00,
2013-03-12 05:55:00,49.1,43.7,29.03,NNW,338,1.5,7.6,82,0.00,,,0.00,WUHU216HW,2013-03-12 09:55:00,
2013-03-12 06:00:00,48.7,43.7,29.03,NNW,338,7.8,7.8,83,0.02,,,0.02,WUHU216HW,2013-03-12 10:00:00,
2013-03-12 06:05:00,47.8,43.2,29.03,NNW,338,7.8,7.8,84,0.04,,,0.04,WUHU216HW,2013-03-12 10:05:00,
2013-03-12 06:10:00,47.4,42.8,29.03,NNW,338,7.1,8.0,84,0.04,,,0.04,WUHU216HW,2013-03-12 10:10:00,
2013-03-12 06:15:00,47.1,42.5,29.04,NNW,338,6.7,8.0,84,0.04,,,0.04,WUHU216HW,2013-03-12 10:15:00,
2013-03-12 06:20:00,46.9,42.8,29.04,NNW,338,8.2,8.7,85,0.06,,,0.06,WUHU216HW,2013-03-12 10:20:00,
2013-03-12 06:23:00,46.9,42.9,29.04,NNW,338,5.8,8.7,86,0.06,,,0.06,WUHU216HW,2013-03-12 10:23:00,
2013-03-12 06:28:00,46.7,42.8,29.04,NNW,338,7.3,8.7,86,0.08,,,0.08,WUHU216HW,2013-03-12 10:28:00,
2013-03-12 06:33:00,46.5,42.6,29.04,NNW,338,5.3,8.5,86,0.08,,,0.08,WUHU216HW,2013-03-12 10:33:00,
2013-03-12 06:38:00,46.5,42.6,29.04,NNW,338,6.2,6.7,86,0.10,,,0.10,WUHU216HW,2013-03-12 10:38:00,
2013-03-12 06:43:00,46.5,42.9,29.05,NNW,338,6.7,6.7,87,0.10,,,0.10,WUHU216HW,2013-03-12 10:43:00,
2013-03-12 06:49:00,46.5,42.9,29.05,North,0,5.5,6.7,87,0.12,,,0.12,WUHU216HW,2013-03-12 10:49:00,
2013-03-12 06:54:00,46.0,42.4,29.05,North,0,8.2,13.6,87,0.14,,,0.14,WUHU216HW,2013-03-12 10:54:00,
2013-03-12 06:59:00,45.1,41.5,29.05,NNW,338,7.8,13.6,87,0.12,,,0.14,WUHU216HW,2013-03-12 10:59:00,
2013-03-12 07:04:00,44.2,40.3,29.06,NNW,338,16.5,16.5,86,0.12,,,0.16,WUHU216HW,2013-03-12 11:04:00,
2013-03-12 07:09:00,43.5,39.9,29.07,SSW,203,8.0,16.5,87,0.12,,,0.16,WUHU216HW,2013-03-12 11:09:00,
2013-03-12 07:14:00,43.1,39.5,29.07,North,0,12.0,14.9,87,0.12,,,0.16,WUHU216HW,2013-03-12 11:14:00,
2013-03-12 07:19:00,42.9,39.3,29.07,NNW,338,8.9,12.0,87,0.10,,,0.16,WUHU216HW,2013-03-12 11:19:00,
2013-03-12 07:25:00,42.6,39.0,29.08,NNW,338,7.6,12.0,87,0.08,,,0.16,WUHU216HW,2013-03-12 11:25:00,
2013-03-12 07:30:00,42.6,39.0,29.08,NNW,338,5.8,8.0,87,0.08,,,0.16,WUHU216HW,2013-03-12 11:30:00,
2013-03-12 07:35:00,42.4,38.8,29.08,NNW,338,6.9,9.1,87,0.08,,,0.16,WUHU216HW,2013-03-12 11:35:00,
2013-03-12 07:40:00,42.2,38.9,29.07,NNW,338,5.8,9.1,88,0.08,,,0.18,WUHU216HW,2013-03-12 11:40:00,
2013-03-12 07:45:00,42.0,38.7,29.08,NNW,338,7.1,8.2,88,0.06,,,0.18,WUHU216HW,2013-03-12 11:45:00,
2013-03-12 07:50:00,41.9,38.2,29.07,NNW,338,8.5,10.5,87,0.04,,,0.18,WUHU216HW,2013-03-12 11:50:00,
2013-03-12 07:55:00,41.7,38.1,29.07,North,0,1.5,10.5,87,0.04,,,0.18,WUHU216HW,2013-03-12 11:55:00,
2013-03-12 08:00:00,41.5,37.9,29.08,NNW,338,8.0,8.5,87,0.04,,,0.18,WUHU216HW,2013-03-12 12:00:00,
2013-03-12 08:06:00,41.5,37.9,29.08,NNW,338,6.0,8.0,87,0.02,,,0.18,WUHU216HW,2013-03-12 12:06:00,
2013-03-12 08:11:00,41.3,37.7,29.08,North,0,6.0,7.6,87,0.02,,,0.18,WUHU216HW,2013-03-12 12:11:00,
2013-03-12 08:16:00,41.1,37.8,29.08,NNW,338,13.1,13.1,88,0.02,,,0.18,WUHU216HW,2013-03-12 12:16:00,
2013-03-12 08:21:00,40.8,37.5,29.09,North,0,10.2,13.1,88,0.04,,,0.20,WUHU216HW,2013-03-12 12:21:00,
2013-03-12 08:26:00,40.1,36.8,29.09,NNW,338,8.2,13.8,88,0.04,,,0.20,WUHU216HW,2013-03-12 12:26:00,
2013-03-12 16:47:00,39.9,36.6,29.09,NNW,338,8.2,8.2,88,0.04,,,0.20,WUHU216HW,2013-03-12 20:47:00,
2013-03-12 16:52:00,42.0,34.3,29.10,North,0,7.1,11.4,74,0.00,,,0.35,WUHU216HW,2013-03-12 20:52:00,
2013-03-12 16:57:00,41.9,34.1,29.10,North,0,10.9,12.5,74,0.00,,,0.35,WUHU216HW,2013-03-12 20:57:00,
2013-03-12 17:02:00,41.7,34.0,29.10,North,0,7.3,12.5,74,0.00,,,0.35,WUHU216HW,2013-03-12 21:02:00,
2013-03-12 17:07:00,41.5,34.1,29.09,NNW,338,6.7,11.8,75,0.00,,,0.35,WUHU216HW,2013-03-12 21:07:00,
2013-03-12 17:12:00,41.5,34.1,29.10,North,0,6.0,11.8,75,0.00,,,0.35,WUHU216HW,2013-03-12 21:12:00,
2013-03-12 17:17:00,41.5,34.1,29.10,NNW,338,8.0,9.8,75,0.00,,,0.35,WUHU216HW,2013-03-12 21:17:00,
2013-03-12 17:22:00,41.3,33.9,29.10,SSW,203,11.4,11.4,75,0.00,,,0.35,WUHU216HW,2013-03-12 21:22:00,
2013-03-12 17:27:00,41.1,33.8,29.10,North,0,11.4,11.4,75,0.00,,,0.35,WUHU216HW,2013-03-12 21:27:00,
2013-03-12 17:32:00,41.0,33.9,29.10,NNW,338,10.9,11.4,76,0.00,,,0.35,WUHU216HW,2013-03-12 21:32:00,
2013-03-12 17:37:00,40.8,33.7,29.11,SSW,203,5.8,11.4,76,0.00,,,0.35,WUHU216HW,2013-03-12 21:37:00,
2013-03-12 17:42:00,41.0,33.9,29.11,NNW,338,6.9,9.1,76,0.00,,,0.35,WUHU216HW,2013-03-12 21:42:00,
2013-03-12 17:47:00,40.8,33.7,29.11,SSW,203,6.9,7.6,76,0.00,,,0.35,WUHU216HW,2013-03-12 21:47:00,
2013-03-12 17:52:00,41.0,33.9,29.11,North,0,11.8,11.8,76,0.00,,,0.35,WUHU216HW,2013-03-12 21:52:00,
2013-03-12 17:57:00,41.0,33.6,29.11,North,0,9.3,12.7,75,0.00,,,0.35,WUHU216HW,2013-03-12 21:57:00,
2013-03-12 18:02:00,41.1,33.8,29.11,North,0,13.8,13.8,75,0.00,,,0.35,WUHU216HW,2013-03-12 22:02:00,
2013-03-12 18:07:00,40.8,33.1,29.11,NNW,338,11.4,13.8,74,0.00,,,0.35,WUHU216HW,2013-03-12 22:07:00,
2013-03-12 18:12:00,40.4,32.7,29.12,NNW,338,17.2,17.2,74,0.00,,,0.35,WUHU216HW,2013-03-12 22:12:00,
2013-03-12 18:17:00,40.1,32.4,29.12,North,0,14.5,18.3,74,0.00,,,0.35,WUHU216HW,2013-03-12 22:17:00,
2013-03-12 18:22:00,39.3,31.7,29.12,North,0,10.0,18.3,74,0.00,,,0.35,WUHU216HW,2013-03-12 22:22:00,
2013-03-12 18:27:00,39.0,31.7,29.12,North,0,14.5,14.5,75,0.00,,,0.35,WUHU216HW,2013-03-12 22:27:00,
2013-03-12 18:32:00,38.8,31.5,29.13,North,0,10.7,14.5,75,0.00,,,0.35,WUHU216HW,2013-03-12 22:32:00,
2013-03-12 18:37:00,38.8,31.8,29.13,NNW,338,6.7,11.4,76,0.00,,,0.35,WUHU216HW,2013-03-12 22:37:00,
2013-03-12 18:42:00,38.4,31.5,29.13,North,0,10.2,13.8,76,0.00,,,0.35,WUHU216HW,2013-03-12 22:42:00,
2013-03-12 18:47:00,38.4,31.5,29.13,SSW,203,8.7,13.8,76,0.00,,,0.35,WUHU216HW,2013-03-12 22:47:00,
2013-03-12 18:52:00,38.1,31.2,29.14,North,0,11.8,12.0,76,0.00,,,0.35,WUHU216HW,2013-03-12 22:52:00,
2013-03-12 18:58:00,37.7,31.0,29.13,North,0,12.3,12.3,77,0.00,,,0.35,WUHU216HW,2013-03-12 22:58:00,
2013-03-12 19:00:00,37.7,31.1,29.13,NNW,338,17.0,17.0,77,0.00,,,0.35,WUHU216HW,2013-03-12 23:00:00,